CYYJ/YYJ METAR and TAF weather

Enter ICAO airport designator
Station Type Date Time Source
CYYJ METAR 2020/09/20 10:00 UTC NOAA

CYYJ 201000Z 26005KT 20SM SKC 13/11 A3006 RMK SLP182


Station Type Date Time Source
CYYJ Decoded METAR 2020/09/20 10:00 UTC NOAA

Victoria Int. Airport, B. C., Canada (CYYJ) 48-39N 123-26W 19M
Sep 20, 2020 - 06:00 AM EDT / 2020.09.20 1000 UTC
Wind: from the W (260 degrees) at 6 MPH (5 KT):0
Visibility: 20 mile(s):0
Sky conditions: clear
Temperature: 55 F (13 C)
Dew Point: 51 F (11 C)
Relative Humidity: 87%
Pressure (altimeter): 30.06 in. Hg (1017 hPa)
ob: CYYJ 201000Z 26005KT 20SM SKC 13/11 A3006 RMK SLP182
cycle: 10

Station Type Date Time Source
CYYJ TAF 2020/09/20 06:42 UTC NOAA

TAF CYYJ 200538Z 2006/2106 27006KT P6SM FEW030 SCT080
BECMG 2017/2019 13008KT
RMK NXT FCST BY 201200Z

Example: see airport list